KNRS/NRS METAR and TAF weather

Enter ICAO airport designator
Station Type Date Time Source
KNRS METAR 2021/09/16 21:56 UTC NOAA

KNRS 162156Z 30012KT 10SM FEW023 22/15 A2987 RMK AO2 SLP113 T02220150 $


Station Type Date Time Source
KNRS Decoded METAR 2021/09/16 21:56 UTC NOAA

IMPERIAL BEACH, NOLF, CA, United States (KNRS) 32-34N 117-07W 5M
Sep 16, 2021 - 05:56 PM EDT / 2021.09.16 2156 UTC
Wind: from the WNW (300 degrees) at 14 MPH (12 KT):0
Visibility: 10 mile(s):0
Sky conditions: mostly clear
Temperature: 72.0 F (22.2 C)
Dew Point: 59.0 F (15.0 C)
Relative Humidity: 63%
Pressure (altimeter): 29.87 in. Hg (1011 hPa)
ob: KNRS 162156Z 30012KT 10SM FEW023 22/15 A2987 RMK AO2 SLP113 T02220150
cycle: 22

Station Type Date Time Source
KNRS TAF UTC NOAA

Error!

Example: see airport list